Observations for AUCKLAND INTL A, New Zealand (NZAA)

NZAA 140700Z AUTO 27022KT 9999 BKN035/// 13/07 Q0998
NZAA 140700Z AUTO 27022KT 9999 BKN035/// 13/07 Q0998 TEMPO 7000 SHRA FEW020TCU
NZAA 140330Z AUTO 27023KT 9999 BKN037/// BKN050/// 14/07 Q0997 TEMPO 6000 SHRA BKN012 FEW020TCU BECMG FM0400 27035G45KT 
NZAA 140300Z AUTO 27024KT 9999 BKN036/// BKN049/// 14/07 Q0997 TEMPO 6000 SHRA BKN012 FEW020TCU 
NZAA 140230Z AUTO 27021KT 9999 SCT036/// BKN047/// OVC055/// 15/09 Q0997 TEMPO 6000 SHRA BKN012 FEW020TCU   
NZAA 140200Z AUTO 27021KT 9999 BKN032/// BKN042/// OVC060/// 15/09 Q0998 TEMPO 6000 SHRA BKN012 FEW020TCU   
NZAA 140130Z AUTO 27023KT 9999 SCT032/// BKN060/// 15/09 Q0998 TEMPO 4000 SHRA BKN012 SCT020TCU 
NZAA 140100Z AUTO 26025KT 9000 BKN031/// BKN047/// BKN060/// 14/10 Q0998 TEMPO 4000 SHRA BKN012 SCT020TCU   
NZAA 140030Z AUTO 26024KT 9999 SCT027/// BKN044/// OVC070/// 14/10 Q0998 TEMPO 4000 SHRA BKN012 SCT020TCU   
NZAA 140000Z AUTO 27023KT 9999 -RA FEW017/// BKN049/// OVC060/// 13/11 Q0999 BECMG 9999 TEMPO 4000 SHRA BKN012 FEW020TCU
NZAA 132330Z AUTO 27023KT 8000 -RA FEW015/// SCT026/// BKN050/// 13/11 Q0998 BECMG 9999 TEMPO 4000 SHRA BKN012 FEW020TCU
NZAA 132300Z AUTO 27022KT 5000 -RA FEW019/// SCT028/// BKN034/// 13/11 Q0998 BECMG 9999 TEMPO 4000 SHRA BKN012 FEW020TCU
NZAA 132230Z AUTO 27020KT 6000 -RA FEW019/// BKN029/// BKN042/// 13/11 Q0998 BECMG 9999 TEMPO 4000 SHRA BKN012 FEW020TCU
NZAA 132200Z AUTO 28014KT 240V310 9999 -RA BKN026/// BKN042/// BKN060/// 14/11 Q0998 TEMPO 4000 SHRA BKN012 FEW020TCU   
NZAA 132130Z AUTO 30010KT 270V360 9999 -RA BKN026/// 13/11 Q0998 TEMPO 4000 SHRA BKN012 FEW020TCU   
NZAA 132100Z AUTO 36006KT 320V020 9999 DZ SCT026/// BKN070/// 12/11 Q0998 TEMPO 4000 SHRA BKN012 FEW020TCU  
NZAA 132030Z AUTO 32007KT 270V350 9999 -RA BKN065/// 12/10 Q0998 TEMPO 4000 SHRA BKN012 FEW020TCU   
NZAA 132000Z AUTO 31009KT 290V350 9999 -RA FEW020/// SCT046/// BKN060/// 12/11 Q0998 TEMPO 4000 SHRA BKN012 FEW020TCU   
NZAA 131930Z AUTO 31009KT 9999 FEW027/// SCT032/// BKN050/// 12/10 Q0998 TEMPO 4000 SHRA BKN012 FEW020TCU   
NZAA 131900Z AUTO 35008KT 320V020 9999 -RA SCT026/// BKN035/// BKN047/// 11/10 Q0998 TEMPO FM2000 5000 SHRA BKN012 FEW020TCU
NZAA 131830Z AUTO 34007KT 9999 FEW045/// 11/10 Q0997 TEMPO 5000 SHRA BKN012 FEW020TCU   
NZAA 131800Z AUTO 36006KT 290V030 9999 NCD 10/10 Q0997 TEMPO 5000 SHRA BKN012 FEW020TCU 
NZAA 131730Z AUTO 35005KT 320V020 9999 -RA FEW026/// SCT037/// BKN085/// 11/10 Q0998 TEMPO 5000 SHRA BKN012 FEW020TCU   
NZAA 131700Z AUTO 35006KT 9999 FEW027/// 11/10 Q0998 TEMPO 5000 SHRA BKN012 FEW020TCU   
NZAA 131630Z AUTO 02003KT 9999 SCT013/// 10/10 Q0998 TEMPO 5000 SHRA BKN012 FEW020TCU   
NZAA 131600Z AUTO 02005KT 9999 SCT015/// 11/10 Q0998 TEMPO 5000 SHRA FEW020TCU  
NZAA 131530Z AUTO 36004KT 9999 BKN015/// BKN021/// 12/10 Q0998 TEMPO 5000 SHRA FEW020TCU
NZAA 131500Z AUTO 36005KT 9999 SCT021/// BKN100/// 12/11 Q0999 TEMPO 5000 SHRA FEW020TCU BECMG 32010KT  
NZAA 131430Z AUTO 35008KT 9999 SCT027/// BKN044/// BKN050/// 13/11 Q0999 TEMPO 5000 SHRA FEW020TCU BECMG 32010KT
NZAA 131400Z AUTO 36007KT 9999 SCT046/// BKN060/// OVC100/// 12/11 Q1000 TEMPO 5000 SHRA FEW020TCU BECMG 32010KT
NZAA 131330Z AUTO 01010KT 9999 FEW049/// SCT070/// BKN100/// 12/12 Q1000 TEMPO 5000 SHRA FEW020TCU BECMG 32010KT
NZAA 131300Z AUTO 02013KT 9999 RA BKN065/// 12/12 Q1000 BECMG -SHRA TEMPO TL1400 3000 +TSRA BKN006 FEW020CB BECMG 32010KT   
NZAA 131230Z AUTO 03019G29KT 9999 -RA SCT007/// BKN033/// OVC070/// 13/13 Q1000 
NZAA 131200Z AUTO 04017KT 8000 -RA BKN009/// BKN018/// OVC030/// 13/12 Q1000 RERA TEMPO 3000 +RA BKN006 FEW020CB
NZAA 131130Z AUTO 04014KT 5000 RA SCT012/// BKN017/// 13/12 Q1001 TEMPO 3000 +RA BKN006 FEW020CB
NZAA 131100Z AUTO 03016KT 9999 -RA OVC015/// 13/12 Q1001 TEMPO 3000 +RA BKN006 FEW020CB 
NZAA 131030Z AUTO 04013KT 9999 -RA BKN018/// BKN028/// OVC046/// 13/11 Q1002 TEMPO 3000 +RA BKN006 FEW020CB 
NZAA 131000Z AUTO 05013KT 9999 FEW030/// OVC038/// 13/11 Q1002 TEMPO 6000 RA BKN012 
NZAA 130930Z AUTO 04013KT 9999 SCT024/// SCT032/// BKN049/// 13/11 Q1003 TEMPO 6000 RA BKN012   
NZAA 130900Z AUTO 05014G26KT 020V080 9999 -RA SCT026/// BKN070/// BKN085/// 13/11 Q1003 TEMPO 6000 RA BKN012
NZAA 130830Z AUTO 05012KT 9999 SCT080/// 12/11 Q1004 TEMPO 6000 RA BKN012   
NZAA 130800Z AUTO 05012KT 9999 -RA SCT075/// BKN100/// 12/11 Q1004 TEMPO 6000 RA BKN012